Impacts TAF Board INFO
FOR SITUATIONAL AWARENESS. NOT TO BE USED FOR FLIGHT PLANNING PURPOSES.
IDs:

KATL - Atlanta/Hartsfield-J, GA, US

Issued at 0804 UTC 18 Jan 2018
Updated at 0941 UTC 18 Jan 2018
Potential Impact None Slight Moderate High
Time0852Z 18/10Z 18/11Z 18/12Z 18/13Z 18/14Z 18/15Z 18/16Z 18/17Z 18/18Z 18/19Z 18/20Z 18/21Z 18/22Z>>
Type OBS PRVL PRVL PRVL PRVL PRVL PRVL PRVL PRVL PRVL PRVL PRVL PRVL PRVL
VIS 10 >6 >6 >6 >6 >6 >6 >6 >6 >6 >6 >6 >6 >6
CIG -- -- -- -- -- -- -- -- -- -- -- -- -- --
Cover CLR SKC SKC SKC SKC SKC SKC SKC SKC SKC SKC SKC SKC SKC
FltCat VFR VFR VFR VFR VFR VFR VFR VFR VFR VFR VFR VFR VFR VFR
WX -- -- -- -- -- -- -- -- -- -- -- -- -- --
WDir 310 320 320 320 320 320 320 320 320 320 320 320 320 320
WSpd 13 10 10 10 10 10 10 10 10 10 10 10 10 10
WGst -- -- -- -- -- -- -- -- -- -- -- -- -- --

Raw TAF
KATL 180804Z 1808/1912 32010KT P6SM SKC
  FM190000 30006KT P6SM SKC


Raw METAR
KATL 180852Z 31013KT 10SM CLR M09/M13 A3040 RMK AO2 SLP310 T10941133 58001
KATL 180752Z 31011KT 10SM CLR M09/M13 A3041 RMK AO2 SLP313 T10941133
KATL 180652Z 31011KT 10SM CLR M09/M13 A3040 RMK AO2 SLP312 T10891133

METAR Board
Radar Display
Forecast Discussion

FOR SITUATIONAL AWARENESS. NOT TO BE USED FOR FLIGHT PLANNING PURPOSES.